createdAt,value
2023-05-10T00:02:19.657Z,58.65
2023-05-10T00:04:45.985Z,52.20
2023-05-10T00:07:12.352Z,57.20
2023-05-10T00:09:38.677Z,57.00
2023-05-10T00:12:05.239Z,57.67
2023-05-10T00:14:31.535Z,59.58
2023-05-10T00:16:57.895Z,53.88
2023-05-10T00:19:24.227Z,62.05
2023-05-10T00:21:50.644Z,59.30
2023-05-10T00:24:16.915Z,64.50
2023-05-10T00:26:43.352Z,67.85
2023-05-10T00:29:09.690Z,65.30
2023-05-10T00:31:35.978Z,68.43
2023-05-10T00:34:02.368Z,65.95
2023-05-10T00:36:28.811Z,66.97
2023-05-10T00:38:55.127Z,66.78
2023-05-10T00:41:22.108Z,79.60
2023-05-10T00:43:49.326Z,67.63
2023-05-10T00:46:16.346Z,73.90
2023-05-10T00:48:43.336Z,74.07
2023-05-10T00:51:09.832Z,73.63
2023-05-10T00:53:36.320Z,70.22
2023-05-10T00:56:04.146Z,73.00
2023-05-10T00:58:32.136Z,80.20
2023-05-10T01:00:59.211Z,79.05
2023-05-10T01:03:26.161Z,72.20
2023-05-10T01:05:52.530Z,80.13
2023-05-10T01:08:19.123Z,69.47
2023-05-10T01:10:46.456Z,76.38
2023-05-10T01:13:13.598Z,68.63
2023-05-10T01:15:39.941Z,76.68
2023-05-10T01:18:06.494Z,65.80
2023-05-10T01:20:37.027Z,70.10
2023-05-10T01:25:35.489Z,65.63
2023-05-10T01:28:01.744Z,70.65
2023-05-10T01:30:46.785Z,69.03
2023-05-10T01:33:22.505Z,68.68
2023-05-10T01:35:54.341Z,67.57
2023-05-10T01:38:33.636Z,76.15
2023-05-10T01:40:59.837Z,69.88
2023-05-10T01:43:29.089Z,92.22
2023-05-10T01:46:13.876Z,74.38
2023-05-10T01:48:47.260Z,73.97
2023-05-10T01:51:15.057Z,76.13
2023-05-10T01:53:42.338Z,80.03
2023-05-10T01:56:09.480Z,77.88
2023-05-10T01:58:37.314Z,81.65
2023-05-10T02:01:04.623Z,75.38
2023-05-10T02:03:31.926Z,81.85
2023-05-10T02:05:58.442Z,73.95
2023-05-10T02:08:25.336Z,78.75
2023-05-10T02:10:53.201Z,79.75
2023-05-10T02:13:19.773Z,80.25
2023-05-10T02:15:48.899Z,73.07
2023-05-10T02:18:16.346Z,79.05
2023-05-10T02:20:44.013Z,79.75
2023-05-10T02:23:10.766Z,82.15
2023-05-10T02:25:37.709Z,83.35
2023-05-10T02:28:05.497Z,83.28
2023-05-10T02:30:33.215Z,82.85
2023-05-10T02:33:00.080Z,81.30
2023-05-10T02:35:27.168Z,73.15
2023-05-10T02:37:54.020Z,84.72
2023-05-10T02:40:20.642Z,86.22
2023-05-10T02:42:48.241Z,82.55
2023-05-10T02:45:15.815Z,83.43
2023-05-10T02:47:42.200Z,84.63
2023-05-10T02:50:08.995Z,82.97
2023-05-10T02:52:39.846Z,84.60
2023-05-10T02:55:06.831Z,96.78
2023-05-10T02:57:34.072Z,104.90
2023-05-10T03:00:01.190Z,107.68
2023-05-10T03:02:27.832Z,102.97
2023-05-10T03:04:54.172Z,110.78
2023-05-10T03:07:22.162Z,115.05
2023-05-10T03:09:49.414Z,112.03
2023-05-10T03:12:27.898Z,117.32
2023-05-10T03:15:01.758Z,122.10
2023-05-10T03:17:40.950Z,125.30
2023-05-10T03:20:12.617Z,119.40
2023-05-10T03:22:41.487Z,125.30
2023-05-10T03:25:11.478Z,125.38
2023-05-10T03:27:39.979Z,128.15
2023-05-10T03:30:07.289Z,124.00
2023-05-10T03:32:35.341Z,120.80
2023-05-10T03:35:02.382Z,111.53
2023-05-10T03:37:28.745Z,112.80
2023-05-10T03:39:55.026Z,98.60
2023-05-10T03:42:21.592Z,95.03
2023-05-10T03:44:50.070Z,95.75
2023-05-10T03:47:16.375Z,108.25
2023-05-10T03:49:42.635Z,110.22
2023-05-10T03:52:08.863Z,104.07
2023-05-10T03:54:35.092Z,97.95
2023-05-10T03:57:01.833Z,94.35
2023-05-10T03:59:28.146Z,107.00
2023-05-10T04:01:54.487Z,110.75
2023-05-10T04:04:21.799Z,98.63
2023-05-10T04:06:48.196Z,91.40
2023-05-10T04:09:14.925Z,101.68
2023-05-10T04:11:41.261Z,93.45
2023-05-10T04:14:07.544Z,97.97
2023-05-10T04:16:33.925Z,96.18
2023-05-10T04:19:00.708Z,100.90
2023-05-10T04:21:27.006Z,94.05
2023-05-10T04:23:53.301Z,96.18
2023-05-10T04:26:19.575Z,100.90
2023-05-10T04:28:46.000Z,103.03
2023-05-10T04:31:12.411Z,99.68
2023-05-10T04:33:38.767Z,101.15
2023-05-10T04:36:05.320Z,102.28
2023-05-10T04:38:31.727Z,102.75
2023-05-10T04:41:08.056Z,97.75
2023-05-10T04:43:34.521Z,98.30
2023-05-10T04:46:00.875Z,111.68
2023-05-10T04:48:27.555Z,105.65
2023-05-10T04:50:53.788Z,117.25
2023-05-10T04:53:20.052Z,114.90
2023-05-10T04:55:47.293Z,117.88
2023-05-10T04:58:13.815Z,110.50
2023-05-10T05:00:40.193Z,110.43
2023-05-10T05:03:07.193Z,110.75
2023-05-10T05:05:33.536Z,106.40
2023-05-10T05:07:59.829Z,105.20
2023-05-10T05:10:26.059Z,107.18
2023-05-10T05:12:52.369Z,98.35
2023-05-10T05:15:18.678Z,101.80
2023-05-10T05:17:44.964Z,109.38
2023-05-10T05:20:11.669Z,113.78
2023-05-10T05:22:38.548Z,111.22
2023-05-10T05:25:05.255Z,117.85
2023-05-10T05:27:32.140Z,125.32
2023-05-10T05:29:58.633Z,124.95
2023-05-10T05:32:25.480Z,118.88
2023-05-10T05:34:51.999Z,119.32
2023-05-10T05:37:19.242Z,117.90
2023-05-10T05:39:45.968Z,112.35
2023-05-10T05:42:12.808Z,121.57
2023-05-10T05:44:39.340Z,120.70
2023-05-10T05:47:05.683Z,120.85
2023-05-10T05:49:32.193Z,122.80
2023-05-10T05:52:01.925Z,131.80
2023-05-10T05:54:28.439Z,138.83
2023-05-10T05:56:55.492Z,111.43
2023-05-10T05:59:21.957Z,124.30
2023-05-10T06:01:48.405Z,107.85
2023-05-10T06:04:14.753Z,111.18
2023-05-10T06:06:41.077Z,109.45
2023-05-10T06:09:07.457Z,92.07
2023-05-10T06:11:34.040Z,94.93
2023-05-10T06:14:00.324Z,102.07
2023-05-10T06:16:26.641Z,91.10
2023-05-10T06:18:52.874Z,88.22
2023-05-10T06:21:19.140Z,86.75
2023-05-10T06:23:45.384Z,80.70
2023-05-10T06:26:11.793Z,74.10
2023-05-10T06:28:40.958Z,77.60
2023-05-10T06:31:07.672Z,86.88
2023-05-10T06:33:34.276Z,83.88
2023-05-10T06:36:00.653Z,97.75
2023-05-10T06:38:27.314Z,81.72
2023-05-10T06:40:53.594Z,82.80
2023-05-10T06:43:19.889Z,89.78
2023-05-10T06:45:46.221Z,93.53
2023-05-10T06:48:12.574Z,81.80
2023-05-10T06:50:38.897Z,80.28
2023-05-10T06:53:05.196Z,87.82
2023-05-10T06:55:31.500Z,73.70
2023-05-10T06:57:57.813Z,59.45
2023-05-10T07:00:24.153Z,54.35
2023-05-10T07:02:50.461Z,48.35
2023-05-10T07:05:16.979Z,45.72
2023-05-10T07:07:43.767Z,48.40
2023-05-10T07:10:10.351Z,46.10
2023-05-10T07:12:36.645Z,33.00
2023-05-10T07:15:03.083Z,29.15
2023-05-10T07:17:29.430Z,29.52
2023-05-10T07:19:55.755Z,22.95
2023-05-10T07:22:22.038Z,29.80
2023-05-10T07:24:48.312Z,23.65
2023-05-10T07:27:14.631Z,33.92
2023-05-10T07:29:40.933Z,20.52
2023-05-10T07:32:07.297Z,22.52
2023-05-10T07:34:33.694Z,19.38
2023-05-10T07:37:00.364Z,21.88
2023-05-10T07:39:28.013Z,16.98
2023-05-10T07:41:55.030Z,20.75
2023-05-10T07:44:21.395Z,20.33
2023-05-10T07:46:48.546Z,22.95
2023-05-10T07:49:14.916Z,19.88
2023-05-10T07:51:41.481Z,21.13
2023-05-10T07:54:07.715Z,20.33
2023-05-10T07:56:34.118Z,18.77
2023-05-10T07:59:00.738Z,19.48
2023-05-10T08:01:28.207Z,21.95
2023-05-10T08:03:54.738Z,19.35
2023-05-10T08:06:21.701Z,20.02
2023-05-10T08:08:50.393Z,22.00
2023-05-10T08:11:19.541Z,25.30
2023-05-10T08:13:46.276Z,21.83
2023-05-10T08:16:12.735Z,24.73
2023-05-10T08:18:39.327Z,22.05
2023-05-10T08:21:05.925Z,19.70
2023-05-10T08:23:32.290Z,21.58
2023-05-10T08:25:58.536Z,20.08
2023-05-10T08:28:24.862Z,20.83
2023-05-10T08:30:51.486Z,22.35
2023-05-10T08:33:21.135Z,24.15
2023-05-10T08:35:47.551Z,26.40
2023-05-10T08:38:13.876Z,17.70
2023-05-10T08:40:43.593Z,21.00
2023-05-10T08:43:11.792Z,19.37
2023-05-10T08:45:38.964Z,23.27
2023-05-10T08:48:06.636Z,18.42
2023-05-10T08:50:32.971Z,24.23
2023-05-10T08:53:01.027Z,19.52
2023-05-10T08:55:27.851Z,20.27
2023-05-10T08:57:54.312Z,25.77
2023-05-10T09:00:21.106Z,22.10
2023-05-10T09:02:48.848Z,26.15
2023-05-10T09:05:17.162Z,36.42
2023-05-10T09:07:43.634Z,20.75
2023-05-10T09:10:10.199Z,22.88
2023-05-10T09:12:36.795Z,17.25
2023-05-10T09:15:04.648Z,22.63
2023-05-10T09:17:31.096Z,15.88
2023-05-10T09:20:00.916Z,19.67
2023-05-10T09:22:27.620Z,16.58
2023-05-10T09:25:06.197Z,18.23
2023-05-10T09:27:32.478Z,14.55
2023-05-10T09:29:58.814Z,11.32
2023-05-10T09:32:41.475Z,12.07
2023-05-10T09:35:08.967Z,11.73
2023-05-10T09:37:35.407Z,9.07
2023-05-10T09:40:02.582Z,9.80
2023-05-10T09:42:28.885Z,10.55
2023-05-10T09:44:55.140Z,8.65
2023-05-10T09:47:21.527Z,8.68
2023-05-10T09:49:52.007Z,10.20
2023-05-10T09:54:54.638Z,8.05
2023-05-10T09:57:22.066Z,12.82
2023-05-10T09:59:48.754Z,10.57
2023-05-10T10:02:15.060Z,11.38
2023-05-10T10:04:41.723Z,10.65
2023-05-10T10:07:08.449Z,12.80
2023-05-10T10:09:35.397Z,7.90
2023-05-10T10:12:02.917Z,6.80
2023-05-10T10:14:31.956Z,12.00
2023-05-10T10:17:06.661Z,10.13
2023-05-10T10:19:34.576Z,12.38
2023-05-10T10:22:01.100Z,12.38
2023-05-10T10:24:27.331Z,11.63
2023-05-10T10:26:55.573Z,9.95
2023-05-10T10:29:45.398Z,11.38
2023-05-10T10:32:21.222Z,11.20
2023-05-10T10:34:47.943Z,8.15
2023-05-10T10:37:14.545Z,15.43
2023-05-10T10:39:40.905Z,10.95
2023-05-10T10:42:07.247Z,11.68
2023-05-10T10:44:36.366Z,11.88
2023-05-10T10:47:41.275Z,9.98
2023-05-10T10:50:09.012Z,11.68
2023-05-10T10:52:36.563Z,11.27
2023-05-10T10:55:19.653Z,14.38
2023-05-10T10:57:53.266Z,8.93
2023-05-10T11:00:22.799Z,11.27
2023-05-10T11:02:54.990Z,10.70
2023-05-10T11:05:33.451Z,14.27
2023-05-10T11:08:00.695Z,9.40
2023-05-10T11:10:27.880Z,13.10
2023-05-10T11:12:55.079Z,11.52
2023-05-10T11:15:29.196Z,10.00
2023-05-10T11:17:56.868Z,12.07
2023-05-10T11:20:25.725Z,12.43
2023-05-10T11:22:52.684Z,7.53
2023-05-10T11:25:19.510Z,10.13
2023-05-10T11:27:48.912Z,8.40
2023-05-10T11:30:15.979Z,7.50
2023-05-10T11:32:42.686Z,12.05
2023-05-10T11:35:09.629Z,8.40
2023-05-10T11:37:35.993Z,8.60
2023-05-10T11:40:03.557Z,6.82
2023-05-10T11:42:29.954Z,7.63
2023-05-10T11:44:56.345Z,10.65
2023-05-10T11:47:22.912Z,8.80
2023-05-10T11:49:49.615Z,7.82
2023-05-10T11:52:15.901Z,9.38
2023-05-10T11:54:54.697Z,7.72
2023-05-10T11:57:21.764Z,8.98
2023-05-10T11:59:48.336Z,6.30
2023-05-10T12:02:15.050Z,5.00
2023-05-10T12:04:42.204Z,7.13
2023-05-10T12:07:08.639Z,6.97
2023-05-10T12:09:43.867Z,5.50
2023-05-10T12:12:11.056Z,6.80
2023-05-10T12:14:37.708Z,9.48
2023-05-10T12:17:04.013Z,9.75
2023-05-10T12:19:37.596Z,5.03
2023-05-10T12:22:05.857Z,10.38
2023-05-10T12:24:34.442Z,4.75
2023-05-10T12:27:01.012Z,5.25
2023-05-10T12:29:31.057Z,5.85
2023-05-10T12:31:58.138Z,6.15
2023-05-10T12:34:24.402Z,6.65
2023-05-10T12:36:53.878Z,3.97
2023-05-10T12:39:20.351Z,5.28
2023-05-10T12:41:46.661Z,4.30
2023-05-10T12:44:12.991Z,5.65
2023-05-10T12:46:39.292Z,5.47
2023-05-10T12:49:09.507Z,5.40
2023-05-10T12:54:03.134Z,7.60
2023-05-10T12:56:29.494Z,5.28
2023-05-10T12:58:55.895Z,3.58
2023-05-10T13:01:22.192Z,3.85
2023-05-10T13:03:48.515Z,7.47
2023-05-10T13:06:15.001Z,8.85
2023-05-10T13:08:41.363Z,5.68
2023-05-10T13:11:08.082Z,8.85
2023-05-10T13:13:34.328Z,6.03
2023-05-10T13:16:00.725Z,5.80
2023-05-10T13:18:27.377Z,7.13
2023-05-10T13:20:54.736Z,7.43
2023-05-10T13:23:21.058Z,7.40
2023-05-10T13:25:47.300Z,7.85
2023-05-10T13:28:13.611Z,10.05
2023-05-10T13:30:39.844Z,12.40
2023-05-10T13:33:06.242Z,8.98
2023-05-10T13:35:32.599Z,8.95
2023-05-10T13:37:58.948Z,8.43
2023-05-10T13:40:25.195Z,9.82
2023-05-10T13:42:51.504Z,13.80
2023-05-10T13:45:17.938Z,13.57
2023-05-10T13:47:44.405Z,8.98
2023-05-10T13:50:10.962Z,11.63
2023-05-10T13:52:37.255Z,10.75
2023-05-10T13:55:03.765Z,14.77
2023-05-10T13:57:31.163Z,7.57
2023-05-10T13:59:58.218Z,9.85
2023-05-10T14:02:25.518Z,8.10
2023-05-10T14:04:52.000Z,9.70
2023-05-10T14:07:18.821Z,7.57
2023-05-10T14:09:45.256Z,7.53
2023-05-10T14:12:11.584Z,10.20
2023-05-10T14:14:37.819Z,9.38
2023-05-10T14:17:04.121Z,12.82
2023-05-10T14:19:33.354Z,16.42
2023-05-10T14:21:59.631Z,15.52
2023-05-10T14:24:25.883Z,10.38
2023-05-10T14:26:54.595Z,15.35
2023-05-10T14:29:21.300Z,13.63
2023-05-10T14:31:47.642Z,15.45
2023-05-10T14:34:14.005Z,15.25
2023-05-10T14:36:41.083Z,23.40
2023-05-10T14:39:07.700Z,16.13
2023-05-10T14:41:33.996Z,19.65
2023-05-10T14:44:00.253Z,16.77
2023-05-10T14:46:26.654Z,15.55
2023-05-10T14:48:53.024Z,17.02
2023-05-10T14:51:22.580Z,17.33
2023-05-10T14:53:51.577Z,16.23
2023-05-10T14:56:17.805Z,19.15
2023-05-10T14:58:44.027Z,14.98
2023-05-10T15:01:10.685Z,18.00
2023-05-10T15:03:37.687Z,19.30
2023-05-10T15:06:06.078Z,14.20
2023-05-10T15:08:32.318Z,14.70
2023-05-10T15:10:58.595Z,16.50
2023-05-10T15:13:24.901Z,14.05
2023-05-10T15:15:51.192Z,20.65
2023-05-10T15:18:17.760Z,19.15
2023-05-10T15:20:44.110Z,18.90
2023-05-10T15:23:10.336Z,19.23
2023-05-10T15:25:38.097Z,19.92
2023-05-10T15:28:05.105Z,17.25
2023-05-10T15:30:31.514Z,17.83
2023-05-10T15:32:57.949Z,16.20
2023-05-10T15:35:24.254Z,14.48
2023-05-10T15:37:50.660Z,11.73
2023-05-10T15:40:17.002Z,15.45
2023-05-10T15:42:43.303Z,14.40
2023-05-10T15:45:10.016Z,13.50
2023-05-10T15:47:36.274Z,16.90
2023-05-10T15:50:02.672Z,12.77
2023-05-10T15:52:29.004Z,14.43
2023-05-10T15:54:55.544Z,10.52
2023-05-10T15:57:21.867Z,17.13
2023-05-10T15:59:48.327Z,13.85
2023-05-10T16:02:14.696Z,16.13
2023-05-10T16:04:41.141Z,13.27
2023-05-10T16:07:07.423Z,11.63
2023-05-10T16:09:33.708Z,10.93
2023-05-10T16:12:00.012Z,9.30
2023-05-10T16:14:26.566Z,12.10
2023-05-10T16:16:53.093Z,9.77
2023-05-10T16:19:19.538Z,12.68
2023-05-10T16:21:47.398Z,11.48
2023-05-10T16:24:13.742Z,9.80
2023-05-10T16:26:41.166Z,8.95
2023-05-10T16:29:08.145Z,11.70
2023-05-10T16:31:34.797Z,12.52
2023-05-10T16:34:01.382Z,10.20
2023-05-10T16:36:29.185Z,12.63
2023-05-10T16:38:55.963Z,15.20
2023-05-10T16:41:22.504Z,10.52
2023-05-10T16:43:49.296Z,14.93
2023-05-10T16:46:16.165Z,9.07
2023-05-10T16:48:42.567Z,10.57
2023-05-10T16:51:09.181Z,8.82
2023-05-10T16:53:36.288Z,9.35
2023-05-10T16:56:03.243Z,7.43
2023-05-10T16:58:29.577Z,8.30
2023-05-10T17:00:55.887Z,16.55
2023-05-10T17:03:22.344Z,8.55
2023-05-10T17:05:48.687Z,8.18
2023-05-10T17:08:16.555Z,7.45
2023-05-10T17:10:42.833Z,8.35
2023-05-10T17:13:10.429Z,4.68
2023-05-10T17:15:37.701Z,6.22
2023-05-10T17:18:04.609Z,5.85
2023-05-10T17:20:31.011Z,10.02
2023-05-10T17:22:57.246Z,6.20
2023-05-10T17:25:23.511Z,5.50
2023-05-10T17:27:49.763Z,5.43
2023-05-10T17:30:16.040Z,4.80
2023-05-10T17:32:42.422Z,5.22
2023-05-10T17:35:08.817Z,4.95
2023-05-10T17:37:35.055Z,4.75
2023-05-10T17:40:01.362Z,5.85
2023-05-10T17:42:27.660Z,6.22
2023-05-10T17:44:53.923Z,6.55
2023-05-10T17:47:20.624Z,10.65
2023-05-10T17:49:46.916Z,5.50
2023-05-10T17:52:13.210Z,9.10
2023-05-10T17:54:39.593Z,12.30
2023-05-10T17:57:06.148Z,9.50
2023-05-10T17:59:32.393Z,7.00
2023-05-10T18:01:58.664Z,7.80
2023-05-10T18:04:25.944Z,7.78
2023-05-10T18:06:55.077Z,6.57
2023-05-10T18:09:21.462Z,7.18
2023-05-10T18:11:47.687Z,11.02
2023-05-10T18:14:14.083Z,8.68
2023-05-10T18:16:40.384Z,10.10
2023-05-10T18:19:06.741Z,7.65
2023-05-10T18:21:33.122Z,9.50
2023-05-10T18:23:59.537Z,11.60
2023-05-10T18:26:26.276Z,10.13
2023-05-10T18:28:52.579Z,10.75
2023-05-10T18:31:19.465Z,6.50
2023-05-10T18:33:45.922Z,14.02
2023-05-10T18:36:12.267Z,8.57
2023-05-10T18:38:38.518Z,15.85
2023-05-10T18:41:05.855Z,9.10
2023-05-10T18:43:34.209Z,9.05
2023-05-10T18:46:00.572Z,8.38
2023-05-10T18:48:26.898Z,10.88
2023-05-10T18:50:53.209Z,10.55
2023-05-10T18:53:19.529Z,10.15
2023-05-10T18:55:46.626Z,14.65
2023-05-10T18:58:13.098Z,10.18
2023-05-10T19:00:39.327Z,14.07
2023-05-10T19:03:05.971Z,9.50
2023-05-10T19:05:32.284Z,17.23
2023-05-10T19:07:58.629Z,19.58
2023-05-10T19:10:24.897Z,12.85
2023-05-10T19:12:51.400Z,16.52
2023-05-10T19:15:19.252Z,12.25
2023-05-10T19:17:47.132Z,24.15
2023-05-10T19:20:15.351Z,14.30
2023-05-10T19:22:54.280Z,16.50
2023-05-10T19:25:29.190Z,10.88
2023-05-10T19:27:57.456Z,11.48
2023-05-10T19:30:26.658Z,18.40
2023-05-10T19:32:53.066Z,11.77
2023-05-10T19:35:19.637Z,13.00
2023-05-10T19:37:47.200Z,21.30
2023-05-10T19:40:15.554Z,17.20
2023-05-10T19:42:41.837Z,14.82
2023-05-10T19:45:08.753Z,12.38
2023-05-10T19:47:36.284Z,14.38
2023-05-10T19:50:03.412Z,12.77
2023-05-10T19:52:29.843Z,12.93
2023-05-10T19:54:56.100Z,14.32
2023-05-10T19:57:22.435Z,16.88
2023-05-10T19:59:48.742Z,14.80
2023-05-10T20:02:15.004Z,19.75
2023-05-10T20:04:41.331Z,13.45
2023-05-10T20:07:07.754Z,17.83
2023-05-10T20:09:34.032Z,16.45
2023-05-10T20:12:00.284Z,16.08
2023-05-10T20:14:26.754Z,15.63
2023-05-10T20:16:53.058Z,17.85
2023-05-10T20:19:19.375Z,18.67
2023-05-10T20:21:45.672Z,15.57
2023-05-10T20:24:12.068Z,18.33
2023-05-10T20:26:38.307Z,16.50
2023-05-10T20:29:04.665Z,17.27
2023-05-10T20:31:30.992Z,16.13
2023-05-10T20:33:57.392Z,22.10
2023-05-10T20:36:23.832Z,17.30
2023-05-10T20:38:50.407Z,15.23
2023-05-10T20:41:16.716Z,18.27
2023-05-10T20:43:42.938Z,13.75
2023-05-10T20:46:09.192Z,19.00
2023-05-10T20:48:35.648Z,22.85
2023-05-10T20:51:02.343Z,22.52
2023-05-10T20:53:28.797Z,15.68
2023-05-10T20:55:55.222Z,18.50
2023-05-10T20:58:21.541Z,19.00
2023-05-10T21:00:47.839Z,17.67
2023-05-10T21:03:14.304Z,21.67
2023-05-10T21:05:40.822Z,17.55
2023-05-10T21:08:07.070Z,26.45
2023-05-10T21:10:33.403Z,17.13
2023-05-10T21:12:59.870Z,17.13
2023-05-10T21:15:26.343Z,16.60
2023-05-10T21:17:54.042Z,16.65
2023-05-10T21:20:20.617Z,19.80
2023-05-10T21:22:46.966Z,19.73
2023-05-10T21:25:13.273Z,22.33
2023-05-10T21:27:39.632Z,21.02
2023-05-10T21:30:06.601Z,17.92
2023-05-10T21:32:32.877Z,28.42
2023-05-10T21:34:59.303Z,19.70
2023-05-10T21:37:25.567Z,18.40
2023-05-10T21:39:52.824Z,21.42
2023-05-10T21:42:19.089Z,19.42
2023-05-10T21:44:45.548Z,19.30
2023-05-10T21:47:11.841Z,18.33
2023-05-10T21:49:38.133Z,18.48
2023-05-10T21:52:04.545Z,23.10
2023-05-10T21:54:30.928Z,20.00
2023-05-10T21:56:57.695Z,19.38
2023-05-10T21:59:23.942Z,19.52
2023-05-10T22:01:50.336Z,21.17
2023-05-10T22:04:16.781Z,19.10
2023-05-10T22:06:43.250Z,24.63
2023-05-10T22:09:09.991Z,21.52
2023-05-10T22:11:36.727Z,21.30
2023-05-10T22:14:02.973Z,20.55
2023-05-10T22:16:29.333Z,24.48
2023-05-10T22:18:55.969Z,22.13
2023-05-10T22:21:22.432Z,21.60
2023-05-10T22:23:48.821Z,24.08
2023-05-10T22:26:15.072Z,21.92
2023-05-10T22:28:41.561Z,25.95
2023-05-10T22:31:13.654Z,22.55
2023-05-10T22:33:40.170Z,25.42
2023-05-10T22:36:06.677Z,22.13
2023-05-10T22:38:32.970Z,25.33
2023-05-10T22:40:59.419Z,21.52
2023-05-10T22:43:25.710Z,28.52
2023-05-10T22:45:52.430Z,21.88
2023-05-10T22:48:20.353Z,24.23
2023-05-10T22:50:46.566Z,28.40
2023-05-10T22:53:12.831Z,26.30
2023-05-10T22:55:39.202Z,24.23
2023-05-10T22:58:05.975Z,26.85
2023-05-10T23:00:32.628Z,28.85
2023-05-10T23:02:59.252Z,29.30
2023-05-10T23:05:25.573Z,27.83
2023-05-10T23:07:53.519Z,27.98
2023-05-10T23:10:20.277Z,28.17
2023-05-10T23:12:46.823Z,29.55
2023-05-10T23:15:13.386Z,23.98
2023-05-10T23:17:39.659Z,27.85
2023-05-10T23:20:06.273Z,33.90
2023-05-10T23:22:32.585Z,32.70
2023-05-10T23:24:58.854Z,28.05
2023-05-10T23:27:28.199Z,26.02
2023-05-10T23:29:55.869Z,27.92
2023-05-10T23:32:22.922Z,29.77
2023-05-10T23:34:49.324Z,28.63
2023-05-10T23:37:15.676Z,29.95
2023-05-10T23:39:42.816Z,28.67
2023-05-10T23:42:09.132Z,30.70
2023-05-10T23:44:35.465Z,32.45
2023-05-10T23:47:01.751Z,32.97
2023-05-10T23:49:28.042Z,33.92
2023-05-10T23:51:54.324Z,30.52
2023-05-10T23:54:20.637Z,31.15
2023-05-10T23:56:46.934Z,29.70
2023-05-10T23:59:13.233Z,27.88
